Time;durP1;ratioP1;P1;durP2;ratioP2;P2;SDS_P1;SDS_P2;PMS_P1;PMS_P2;Temp;Humidity;BMP_temperature;BMP_pressure;BME280_temperature;BME280_humidity;BME280_pressure;Samples;Min_cycle;Max_cycle;Signal;HPM_P1;HPM_P2
2022/02/18 00:00:25;;;;;;;29.08;4.63;;;;;;;6.01;89.93;100907.03;5034440;28;20043;-78
2022/02/18 00:02:51;;;;;;;28.05;3.33;;;;;;;6.11;89.72;100908.88;5032012;28;20091;-78
2022/02/18 00:05:16;;;;;;;25.58;4.30;;;;;;;6.16;89.38;100906.72;5015933;28;20491;-77
2022/02/18 00:07:44;;;;;;;29.80;3.80;;;;;;;6.29;89.07;100909.13;5016286;28;20657;-78
2022/02/18 00:10:10;;;;;;;37.97;4.00;;;;;;;6.12;89.39;100902.78;5028482;28;20033;-77
2022/02/18 00:12:36;;;;;;;34.20;3.88;;;;;;;6.16;89.78;100909.31;5026489;28;20505;-78
2022/02/18 00:15:03;;;;;;;33.88;4.45;;;;;;;6.12;89.28;100907.91;5016625;28;20063;-78
2022/02/18 00:17:29;;;;;;;28.63;3.83;;;;;;;6.13;89.49;100901.84;5038066;28;20261;-77
2022/02/18 00:19:56;;;;;;;34.00;3.95;;;;;;;6.28;88.94;100902.34;5036352;28;20325;-78
2022/02/18 00:22:22;;;;;;;25.23;3.97;;;;;;;6.16;88.81;100907.56;5013153;28;20643;-78
2022/02/18 00:24:49;;;;;;;29.33;3.47;;;;;;;6.18;89.13;100908.25;5026927;28;20049;-78
2022/02/18 00:27:14;;;;;;;37.40;3.67;;;;;;;6.23;88.94;100902.72;5028555;28;20102;-77
2022/02/18 00:29:41;;;;;;;24.27;3.85;;;;;;;6.25;89.06;100900.84;5006013;28;20033;-77
2022/02/18 00:32:08;;;;;;;29.17;4.10;;;;;;;6.22;89.00;100901.91;5004812;28;20462;-78
2022/02/18 00:34:38;;;;;;;29.27;4.40;;;;;;;6.28;88.81;100904.94;5046793;28;20041;-77
2022/02/18 00:37:05;;;;;;;30.13;4.47;;;;;;;6.27;88.51;100908.44;5028302;28;20364;-77
2022/02/18 00:39:32;;;;;;;34.05;3.97;;;;;;;6.30;88.71;100910.78;5017699;28;20318;-78
2022/02/18 00:41:58;;;;;;;38.22;5.50;;;;;;;6.26;88.68;100905.06;5029217;28;20535;-77
2022/02/18 00:44:23;;;;;;;26.25;3.20;;;;;;;6.13;88.51;100897.50;5013497;28;20033;-78
2022/02/18 00:46:53;;;;;;;33.08;4.00;;;;;;;6.13;89.04;100900.06;5011675;28;20033;-77
2022/02/18 00:49:19;;;;;;;25.75;3.58;;;;;;;6.29;88.71;100893.66;5045139;28;20107;-78
2022/02/18 00:51:45;;;;;;;32.35;5.97;;;;;;;6.21;88.42;100902.03;5013503;28;20439;-78
2022/02/18 00:54:11;;;;;;;35.70;4.43;;;;;;;6.28;88.24;100915.22;5012476;28;20032;-77
2022/02/18 00:56:39;;;;;;;28.10;5.25;;;;;;;6.42;87.83;100904.59;5030705;28;20040;-77
2022/02/18 00:59:06;;;;;;;29.85;4.50;;;;;;;6.36;87.65;100905.91;5006758;28;20041;-77
2022/02/18 01:01:32;;;;;;;24.60;3.10;;;;;;;6.36;87.74;100898.19;5025225;28;20067;-78
2022/02/18 01:03:57;;;;;;;31.98;3.78;;;;;;;6.44;87.62;100887.25;5028918;28;20068;-78
2022/02/18 01:06:22;;;;;;;23.80;3.53;;;;;;;6.36;87.43;100887.09;5021291;28;20076;-78
2022/02/18 01:08:48;;;;;;;23.40;2.78;;;;;;;6.42;87.28;100882.25;5041973;28;20090;-77
2022/02/18 01:11:13;;;;;;;30.20;3.25;;;;;;;6.41;87.49;100885.75;5015980;28;20037;-78
2022/02/18 01:13:40;;;;;;;33.08;4.82;;;;;;;6.38;87.15;100869.75;5013905;28;20037;-78
2022/02/18 01:16:06;;;;;;;28.65;4.13;;;;;;;6.36;87.32;100862.13;5031509;28;20132;-78
2022/02/18 01:18:34;;;;;;;30.67;5.60;;;;;;;6.38;87.30;100860.25;5032776;28;20104;-77
2022/02/18 01:21:00;;;;;;;23.60;3.47;;;;;;;6.28;87.47;100853.44;5032086;28;20044;-77
2022/02/18 01:23:25;;;;;;;28.10;5.00;;;;;;;6.26;87.99;100856.13;5028519;28;20092;-77
2022/02/18 01:25:50;;;;;;;32.00;4.82;;;;;;;6.30;87.86;100856.69;5027218;28;20045;-77
2022/02/18 01:28:16;;;;;;;32.83;4.32;;;;;;;6.27;87.52;100847.44;5014819;28;20041;-78
2022/02/18 01:30:42;;;;;;;20.35;3.45;;;;;;;6.29;87.89;100844.75;5013383;28;20040;-77
2022/02/18 01:33:08;;;;;;;27.10;4.43;;;;;;;6.24;88.19;100837.41;5012984;28;20033;-77
2022/02/18 01:35:35;;;;;;;27.05;3.25;;;;;;;6.19;88.31;100829.25;5000600;28;20025;-78
2022/02/18 01:38:02;;;;;;;29.05;4.60;;;;;;;6.16;88.96;100830.31;5012789;28;20107;-77
2022/02/18 01:40:27;;;;;;;38.03;5.55;;;;;;;6.26;88.38;100829.56;5030615;28;20407;-78
2022/02/18 01:42:53;;;;;;;31.23;5.20;;;;;;;6.32;88.21;100832.44;5032599;28;20033;-77
2022/02/18 01:45:19;;;;;;;38.42;4.80;;;;;;;6.23;88.74;100815.16;5018790;28;20029;-78
2022/02/18 01:47:45;;;;;;;41.50;4.88;;;;;;;6.34;88.23;100811.69;5027938;28;20067;-77
2022/02/18 01:50:10;;;;;;;25.35;3.60;;;;;;;6.29;88.79;100799.22;5036544;28;20103;-77
2022/02/18 01:52:40;;;;;;;35.47;4.47;;;;;;;6.36;88.56;100800.31;5030381;28;20044;-77
2022/02/18 01:55:11;;;;;;;31.35;4.85;;;;;;;6.26;88.93;100803.81;5028816;28;20115;-77
2022/02/18 01:57:44;;;;;;;32.28;5.53;;;;;;;6.36;88.62;100796.94;5046725;28;20045;-76
2022/02/18 02:00:11;;;;;;;28.10;4.07;;;;;;;6.30;88.25;100802.59;5046946;28;20036;-77
2022/02/18 02:02:43;;;;;;;28.53;4.60;;;;;;;6.23;88.87;100802.28;5048336;28;20533;-77
2022/02/18 02:05:10;;;;;;;29.27;3.78;;;;;;;6.21;89.55;100799.03;5030027;28;20037;-78
2022/02/18 02:07:39;;;;;;;25.63;3.88;;;;;;;6.21;89.70;100807.56;5012926;28;20259;-77
2022/02/18 02:10:11;;;;;;;30.75;4.00;;;;;;;6.24;89.53;100807.31;5018220;28;20028;-77
2022/02/18 02:12:50;;;;;;;30.20;4.47;;;;;;;6.24;89.14;100806.50;5030779;28;20087;-78
2022/02/18 02:15:27;;;;;;;41.42;4.25;;;;;;;6.22;89.13;100798.91;5014939;28;20454;-78
2022/02/18 02:17:53;;;;;;;39.45;4.45;;;;;;;6.19;90.02;100795.75;5027622;28;20028;-77
2022/02/18 02:20:20;;;;;;;43.08;4.25;;;;;;;6.29;89.48;100790.66;5013794;28;20099;-77
2022/02/18 02:22:46;;;;;;;32.90;4.60;;;;;;;6.33;89.39;100779.16;5025188;28;20048;-78
2022/02/18 02:25:12;;;;;;;31.92;4.15;;;;;;;6.38;89.42;100782.16;5031933;28;20495;-78
2022/02/18 02:27:39;;;;;;;29.10;4.90;;;;;;;6.41;89.18;100772.41;5048807;28;20037;-78
2022/02/18 02:30:08;;;;;;;37.28;6.07;;;;;;;6.32;89.61;100767.22;5016281;28;20443;-77
2022/02/18 02:32:33;;;;;;;41.22;4.38;;;;;;;6.40;89.96;100759.66;5029712;28;20490;-78
2022/02/18 02:34:59;;;;;;;45.10;5.95;;;;;;;6.45;89.70;100751.56;5010286;28;20033;-78
2022/02/18 02:37:25;;;;;;;28.15;5.38;;;;;;;6.43;89.42;100738.81;5029943;28;20064;-80
2022/02/18 02:39:51;;;;;;;34.97;4.80;;;;;;;6.47;89.90;100741.94;5007502;28;20063;-78
2022/02/18 02:42:24;;;;;;;35.35;5.00;;;;;;;6.50;90.33;100746.81;5044060;28;20083;-76
2022/02/18 02:44:55;;;;;;;40.55;5.68;;;;;;;6.50;90.26;100744.25;5016590;28;20033;-78
2022/02/18 02:47:21;;;;;;;40.63;4.50;;;;;;;6.48;90.27;100736.66;5015943;28;20040;-78
2022/02/18 02:49:48;;;;;;;38.15;5.05;;;;;;;6.41;90.11;100723.47;5014747;28;20099;-77
2022/02/18 02:52:14;;;;;;;34.05;4.50;;;;;;;6.56;90.09;100721.34;5025466;28;20527;-78
2022/02/18 02:54:40;;;;;;;38.40;5.20;;;;;;;6.55;89.90;100729.22;5017353;28;20071;-78
2022/02/18 02:57:10;;;;;;;26.95;4.82;;;;;;;6.58;89.91;100719.47;5010205;28;20025;-77
2022/02/18 02:59:44;;;;;;;34.75;4.57;;;;;;;6.54;90.10;100707.78;5014174;28;20468;-78
2022/02/18 03:02:09;;;;;;;35.53;4.65;;;;;;;6.58;89.83;100698.03;5026901;28;20037;-79
2022/02/18 03:04:35;;;;;;;32.30;4.85;;;;;;;6.52;89.79;100694.22;5007788;28;20047;-78
2022/02/18 03:07:01;;;;;;;34.83;6.03;;;;;;;6.53;89.61;100685.53;5014745;28;20025;-77
2022/02/18 03:09:28;;;;;;;30.15;4.63;;;;;;;6.54;89.88;100689.75;5007794;28;20033;-78
2022/02/18 03:12:08;;;;;;;30.88;3.85;;;;;;;6.48;90.04;100669.69;5014423;28;20075;-77
2022/02/18 03:14:37;;;;;;;38.35;4.32;;;;;;;6.53;89.26;100666.69;5040385;28;20055;-77
2022/02/18 03:17:05;;;;;;;40.78;4.63;;;;;;;6.39;89.74;100668.72;5028373;28;20029;-78
2022/02/18 03:19:31;;;;;;;43.85;5.32;;;;;;;6.48;90.02;100658.53;5010305;28;20033;-77
2022/02/18 03:21:59;;;;;;;32.97;4.75;;;;;;;6.39;89.97;100640.38;5012981;28;20398;-78
2022/02/18 03:24:25;;;;;;;34.35;6.28;;;;;;;6.49;89.39;100635.25;5043105;28;20033;-78
2022/02/18 03:26:53;;;;;;;37.83;4.85;;;;;;;6.55;89.14;100632.13;5007448;28;20021;-76
2022/02/18 03:29:21;;;;;;;34.83;5.45;;;;;;;6.54;89.10;100612.47;5011698;28;20139;-77
2022/02/18 03:31:55;;;;;;;36.88;5.25;;;;;;;6.43;89.06;100623.69;5014343;28;20144;-77
2022/02/18 03:34:21;;;;;;;34.33;6.78;;;;;;;6.49;89.32;100626.69;5026430;28;20025;-77
2022/02/18 03:36:47;;;;;;;39.92;4.57;;;;;;;6.48;89.15;100613.00;5017623;28;20029;-78
2022/02/18 03:39:13;;;;;;;33.30;5.85;;;;;;;6.64;88.40;100622.78;5016176;28;20036;-77
2022/02/18 03:41:40;;;;;;;38.67;4.32;;;;;;;6.55;88.10;100605.56;5006515;28;20029;-77
2022/02/18 03:44:09;;;;;;;56.33;6.35;;;;;;;6.55;88.59;100593.47;5031127;28;20032;-77
2022/02/18 03:46:55;;;;;;;39.17;5.03;;;;;;;6.61;88.03;100592.97;5030054;28;20377;-78
2022/02/18 03:49:21;;;;;;;35.30;5.63;;;;;;;6.59;87.85;100583.72;5012050;28;20179;-77
2022/02/18 03:51:47;;;;;;;28.13;3.88;;;;;;;6.56;87.82;100579.66;5031866;28;20033;-78
2022/02/18 03:54:13;;;;;;;23.90;3.75;;;;;;;6.65;87.34;100584.94;5013340;28;20633;-77
2022/02/18 03:56:39;;;;;;;30.90;4.53;;;;;;;6.56;87.59;100571.94;5030072;28;20067;-78
2022/02/18 03:59:06;;;;;;;33.63;5.95;;;;;;;6.60;87.72;100582.78;5031624;28;20036;-77
2022/02/18 04:01:33;;;;;;;30.35;3.70;;;;;;;6.62;87.62;100579.09;5030722;28;20022;-77
2022/02/18 04:03:58;;;;;;;32.15;4.28;;;;;;;6.58;87.31;100569.22;5007649;28;20037;-77
2022/02/18 04:06:31;;;;;;;27.30;4.10;;;;;;;6.58;87.26;100567.44;5034498;28;20028;-77
2022/02/18 04:09:06;;;;;;;35.53;3.22;;;;;;;6.56;87.49;100565.97;5016447;28;20087;-78
2022/02/18 04:11:37;;;;;;;33.97;4.13;;;;;;;6.48;88.07;100569.22;5016041;28;20040;-78
2022/02/18 04:14:06;;;;;;;28.40;4.07;;;;;;;6.48;87.80;100570.97;5019861;28;20081;-78
2022/02/18 04:16:32;;;;;;;33.75;3.60;;;;;;;6.61;87.63;100558.63;5014233;28;20458;-77
2022/02/18 04:19:05;;;;;;;31.73;4.35;;;;;;;6.53;87.72;100549.00;5016790;28;20060;-77
2022/02/18 04:21:33;;;;;;;27.13;4.03;;;;;;;6.53;87.36;100556.72;5020873;28;20415;-77
2022/02/18 04:24:16;;;;;;;36.28;4.07;;;;;;;6.60;86.90;100546.72;5019047;28;20040;-78
2022/02/18 04:26:42;;;;;;;28.45;5.45;;;;;;;6.59;86.90;100547.66;5027738;28;20028;-77
2022/02/18 04:29:09;;;;;;;28.20;3.53;;;;;;;6.51;87.36;100535.44;5013546;28;20581;-77
2022/02/18 04:31:36;;;;;;;32.15;4.97;;;;;;;6.55;87.22;100525.69;5029177;28;20029;-78
2022/02/18 04:34:01;;;;;;;30.27;5.10;;;;;;;6.52;87.33;100513.91;5047062;28;20067;-77
2022/02/18 04:36:26;;;;;;;39.08;5.25;;;;;;;6.48;87.79;100504.81;5012152;28;20144;-77
2022/02/18 04:38:53;;;;;;;36.28;5.25;;;;;;;6.54;87.28;100482.84;5017887;28;20033;-77
2022/02/18 04:41:19;;;;;;;36.63;5.10;;;;;;;6.63;86.95;100467.38;5030735;28;20033;-77
2022/02/18 04:43:44;;;;;;;36.72;4.63;;;;;;;6.59;86.64;100455.72;5014265;28;20036;-77
2022/02/18 04:46:09;;;;;;;34.17;4.20;;;;;;;6.63;86.42;100458.84;5030432;28;20088;-77
2022/02/18 04:48:35;;;;;;;33.85;4.55;;;;;;;6.68;86.38;100451.50;5030745;28;20535;-77
2022/02/18 04:51:00;;;;;;;33.42;4.85;;;;;;;6.57;86.47;100451.66;5036120;28;20048;-77
2022/02/18 04:53:26;;;;;;;31.95;4.00;;;;;;;6.53;86.99;100450.31;5052530;28;20086;-78
2022/02/18 04:55:51;;;;;;;30.13;3.90;;;;;;;6.48;87.15;100444.75;5017114;28;20037;-78
2022/02/18 04:58:17;;;;;;;29.75;4.07;;;;;;;6.50;86.97;100440.25;5052531;28;20033;-77
2022/02/18 05:00:42;;;;;;;32.63;4.20;;;;;;;6.53;87.00;100425.34;5031052;28;20029;-78
2022/02/18 05:03:07;;;;;;;29.30;3.63;;;;;;;6.49;87.12;100425.78;5030024;28;20083;-77
2022/02/18 05:05:33;;;;;;;33.53;4.60;;;;;;;6.40;87.18;100412.78;5036733;28;20483;-78
2022/02/18 05:07:58;;;;;;;28.67;3.72;;;;;;;6.57;86.68;100397.53;5010939;28;20151;-77
2022/02/18 05:10:24;;;;;;;39.40;5.05;;;;;;;6.57;86.45;100382.09;5047305;28;20032;-77
2022/02/18 05:12:51;;;;;;;36.38;3.90;;;;;;;6.62;85.85;100392.78;5048142;28;20028;-76
2022/02/18 05:15:18;;;;;;;21.05;3.78;;;;;;;6.63;85.88;100379.78;5032127;28;20431;-77
2022/02/18 05:17:48;;;;;;;32.83;4.47;;;;;;;6.65;85.60;100378.81;5058992;28;20041;-77
2022/02/18 05:20:15;;;;;;;42.65;4.13;;;;;;;6.66;85.19;100363.22;5046836;28;20041;-76
2022/02/18 05:22:41;;;;;;;36.70;4.03;;;;;;;6.57;85.68;100364.88;5046272;28;20082;-77
2022/02/18 05:25:07;;;;;;;37.40;4.72;;;;;;;6.71;84.95;100335.25;5012615;28;20044;-77
2022/02/18 05:27:33;;;;;;;37.90;3.83;;;;;;;6.67;85.06;100333.94;5028628;28;20025;-77
2022/02/18 05:29:58;;;;;;;39.17;5.90;;;;;;;6.66;84.64;100329.72;5021418;28;20040;-77
2022/02/18 05:32:24;;;;;;;35.58;4.15;;;;;;;6.63;84.75;100323.09;5013188;28;20573;-77
2022/02/18 05:34:49;;;;;;;32.72;4.40;;;;;;;6.59;84.78;100320.94;5024581;28;20036;-78
2022/02/18 05:37:15;;;;;;;40.47;3.75;;;;;;;6.52;84.94;100319.91;5029539;28;20083;-77
2022/02/18 05:39:40;;;;;;;32.80;3.55;;;;;;;6.48;85.00;100314.22;5028462;28;20072;-78
2022/02/18 05:42:06;;;;;;;32.80;3.90;;;;;;;6.53;84.91;100312.00;5007035;28;20045;-78
2022/02/18 05:44:32;;;;;;;34.33;3.88;;;;;;;6.56;84.55;100298.84;5026617;28;20120;-77
2022/02/18 05:46:59;;;;;;;37.55;4.32;;;;;;;6.67;84.45;100297.84;5033253;28;20037;-76
2022/02/18 05:49:24;;;;;;;24.73;3.08;;;;;;;6.65;84.87;100293.78;5008668;28;20037;-77
2022/02/18 05:51:51;;;;;;;34.63;3.58;;;;;;;6.68;84.68;100294.31;5012275;28;20068;-77
2022/02/18 05:54:17;;;;;;;27.05;3.97;;;;;;;6.64;85.08;100292.97;5031071;28;20025;-77
2022/02/18 05:56:42;;;;;;;22.83;3.30;;;;;;;6.62;85.35;100284.59;5011061;28;20095;-77
2022/02/18 05:59:08;;;;;;;25.13;4.80;;;;;;;6.62;85.17;100269.13;5036684;28;20047;-77
2022/02/18 06:01:33;;;;;;;32.13;4.05;;;;;;;6.60;85.11;100255.56;5035202;28;20025;-76
2022/02/18 06:03:59;;;;;;;35.03;4.68;;;;;;;6.52;85.50;100263.22;5028823;28;20043;-77
2022/02/18 06:06:27;;;;;;;32.53;3.58;;;;;;;6.53;85.91;100264.81;5016838;28;20087;-76
2022/02/18 06:08:52;;;;;;;20.80;3.30;;;;;;;6.57;85.71;100253.28;5014041;28;20095;-76
2022/02/18 06:11:20;;;;;;;31.80;4.15;;;;;;;6.53;86.47;100249.38;5024716;28;20484;-75
2022/02/18 06:13:45;;;;;;;29.85;3.10;;;;;;;6.50;86.89;100239.34;5028445;28;20048;-77
2022/02/18 06:16:11;;;;;;;27.38;2.85;;;;;;;6.59;86.87;100218.72;5028572;28;20037;-77
2022/02/18 06:18:36;;;;;;;31.08;3.80;;;;;;;6.52;88.10;100214.28;5011813;28;20049;-77
2022/02/18 06:21:03;;;;;;;23.20;3.53;;;;;;;6.52;88.36;100209.13;5050900;28;20049;-76
2022/02/18 06:23:29;;;;;;;29.02;3.17;;;;;;;6.47;88.86;100198.44;5045285;28;20033;-77
2022/02/18 06:25:54;;;;;;;31.75;5.28;;;;;;;6.47;89.67;100188.94;5007621;28;20048;-77
2022/02/18 06:28:20;;;;;;;20.20;2.92;;;;;;;6.57;90.43;100184.56;5028731;28;20384;-77
2022/02/18 06:30:45;;;;;;;34.33;3.85;;;;;;;6.50;91.54;100168.06;5029034;28;20407;-78
2022/02/18 06:33:11;;;;;;;26.65;3.97;;;;;;;6.50;91.57;100159.50;5013672;28;20104;-77
2022/02/18 06:35:39;;;;;;;27.35;4.03;;;;;;;6.51;91.85;100138.75;5019174;28;20029;-77
2022/02/18 06:38:05;;;;;;;35.53;5.07;;;;;;;6.52;92.14;100137.81;5049038;28;20116;-78
2022/02/18 06:40:31;;;;;;;27.08;4.07;;;;;;;6.44;92.58;100127.41;5014043;28;20037;-76
2022/02/18 06:42:57;;;;;;;26.50;3.78;;;;;;;6.41;92.62;100119.97;5028167;28;20486;-76
2022/02/18 06:45:23;;;;;;;31.67;3.58;;;;;;;6.45;92.21;100111.00;5020983;28;20052;-77
2022/02/18 06:47:49;;;;;;;31.95;3.85;;;;;;;6.41;92.75;100107.91;5016403;28;20143;-78
2022/02/18 06:50:16;;;;;;;32.17;4.63;;;;;;;6.39;92.69;100107.25;5028286;28;20036;-76
2022/02/18 06:52:43;;;;;;;31.92;4.10;;;;;;;6.41;92.94;100099.38;5012112;28;20224;-77
2022/02/18 06:55:09;;;;;;;27.95;3.10;;;;;;;6.38;92.63;100090.16;5020401;28;20084;-77
2022/02/18 06:57:42;;;;;;;23.38;4.00;;;;;;;6.40;93.02;100095.16;5010517;28;20052;-76
2022/02/18 07:00:10;;;;;;;32.90;3.90;;;;;;;6.43;92.73;100079.44;5019724;28;20045;-77
2022/02/18 07:02:35;;;;;;;35.78;4.43;;;;;;;6.33;92.85;100083.81;5045946;28;20530;-78
2022/02/18 07:05:01;;;;;;;36.22;4.25;;;;;;;6.37;93.32;100067.97;5010760;28;20069;-78
2022/02/18 07:07:26;;;;;;;32.13;4.43;;;;;;;6.43;93.03;100053.69;5026281;28;20227;-76
2022/02/18 07:09:52;;;;;;;34.15;4.15;;;;;;;6.54;91.60;100052.66;5027062;28;20444;-77
2022/02/18 07:12:19;;;;;;;29.92;3.95;;;;;;;6.48;91.84;100066.09;5015198;28;20033;-77
2022/02/18 07:14:44;;;;;;;31.85;4.03;;;;;;;6.54;91.42;100050.09;5046761;28;20068;-77
2022/02/18 07:17:13;;;;;;;25.85;3.42;;;;;;;6.57;91.35;100047.19;5031396;28;20119;-76
2022/02/18 07:19:41;;;;;;;27.63;3.25;;;;;;;6.68;90.55;100041.00;5026044;28;20383;-77
2022/02/18 07:22:06;;;;;;;27.55;3.40;;;;;;;6.79;89.37;100031.28;5013920;28;20029;-75
2022/02/18 07:24:32;;;;;;;30.77;3.92;;;;;;;6.75;89.55;100029.94;5028052;28;20453;-77
2022/02/18 07:26:57;;;;;;;26.73;4.03;;;;;;;6.83;89.20;100024.03;5015961;28;20037;-76
2022/02/18 07:29:23;;;;;;;28.70;4.55;;;;;;;6.83;88.98;100016.31;5011551;28;20041;-77
2022/02/18 07:31:48;;;;;;;33.10;4.35;;;;;;;6.89;89.13;99996.88;5017784;28;20041;-77
2022/02/18 07:34:14;;;;;;;31.45;3.45;;;;;;;6.90;88.89;99993.34;5030069;28;20415;-77
2022/02/18 07:36:39;;;;;;;22.08;3.90;;;;;;;6.81;89.53;100013.88;5031318;28;23011;-78
2022/02/18 07:39:04;;;;;;;26.60;3.45;;;;;;;6.87;89.38;99991.06;5013831;28;20079;-78
2022/02/18 07:41:30;;;;;;;15.40;3.10;;;;;;;6.90;88.99;99973.53;5028632;28;20036;-75
2022/02/18 07:43:55;;;;;;;26.65;4.30;;;;;;;6.92;88.97;99986.25;5029752;28;20052;-77
2022/02/18 07:46:21;;;;;;;27.90;4.30;;;;;;;6.91;89.22;99962.28;5026935;28;20035;-77
2022/02/18 07:48:46;;;;;;;23.80;3.35;;;;;;;7.00;89.15;99952.78;5011834;28;20138;-76
2022/02/18 07:51:12;;;;;;;22.42;3.42;;;;;;;6.92;89.31;99957.91;5028026;28;20037;-77
2022/02/18 07:53:37;;;;;;;37.67;4.57;;;;;;;6.94;89.42;99951.63;5046892;28;20037;-77
2022/02/18 07:56:03;;;;;;;35.75;4.18;;;;;;;6.98;89.65;99937.47;5036413;28;20036;-77
2022/02/18 07:58:29;;;;;;;27.17;4.80;;;;;;;6.93;89.85;99938.91;5016253;28;20032;-77
2022/02/18 08:00:54;;;;;;;31.92;4.10;;;;;;;6.89;90.70;99938.38;5011213;28;20416;-77
2022/02/18 08:03:20;;;;;;;26.38;3.95;;;;;;;7.07;90.64;99924.66;5041883;28;20044;-77
2022/02/18 08:05:45;;;;;;;27.77;3.80;;;;;;;7.01;90.61;99913.97;5046966;28;20036;-77
2022/02/18 08:08:11;;;;;;;30.92;3.38;;;;;;;7.11;90.94;99915.63;5028639;28;20048;-77
2022/02/18 08:10:36;;;;;;;26.17;3.58;;;;;;;7.35;90.30;99896.88;5030808;28;20451;-77
2022/02/18 08:13:02;;;;;;;25.50;3.38;;;;;;;7.33;90.62;99883.31;5031322;28;20036;-76
2022/02/18 08:15:28;;;;;;;25.80;3.03;;;;;;;7.36;90.93;99885.56;5030532;28;22121;-76
2022/02/18 08:17:53;;;;;;;27.15;4.82;;;;;;;7.49;91.18;99874.81;5032973;28;20345;-77
2022/02/18 08:20:19;;;;;;;29.50;5.45;;;;;;;7.54;91.32;99872.56;5045087;28;20021;-77
2022/02/18 08:22:44;;;;;;;14.60;3.03;;;;;;;7.71;92.32;99861.28;5012034;28;20399;-76
2022/02/18 08:25:10;;;;;;;22.08;3.55;;;;;;;7.79;92.87;99874.19;5016477;28;20417;-77
2022/02/18 08:27:36;;;;;;;22.20;2.97;;;;;;;7.83;93.45;99861.78;5031811;28;20198;-77
2022/02/18 08:30:03;;;;;;;20.83;3.40;;;;;;;7.90;93.76;99831.78;5033023;28;20037;-77
2022/02/18 08:32:29;;;;;;;9.88;1.67;;;;;;;8.13;94.16;99833.69;5029375;28;20068;-77
2022/02/18 08:34:55;;;;;;;7.57;1.42;;;;;;;8.27;94.50;99827.88;5049103;28;20131;-78
2022/02/18 08:37:21;;;;;;;12.05;1.67;;;;;;;8.38;94.44;99826.69;5015026;28;20029;-77
2022/02/18 08:39:46;;;;;;;7.97;1.75;;;;;;;8.51;94.31;99819.31;5041720;28;20040;-76
2022/02/18 08:42:12;;;;;;;8.38;2.53;;;;;;;8.68;93.76;99808.88;5012550;28;20025;-78
2022/02/18 08:44:38;;;;;;;9.00;1.45;;;;;;;8.77;93.82;99800.13;5029840;28;20096;-78
2022/02/18 08:47:04;;;;;;;7.22;1.65;;;;;;;8.76;93.62;99804.50;5013088;28;20447;-76
2022/02/18 08:49:30;;;;;;;6.47;1.40;;;;;;;8.76;93.27;99801.13;5026287;28;20562;-78
2022/02/18 08:51:55;;;;;;;5.60;1.10;;;;;;;9.01;93.31;99781.09;5028438;28;20043;-76
2022/02/18 08:54:21;;;;;;;8.68;2.50;;;;;;;9.02;92.81;99782.69;5010434;28;20032;-78
2022/02/18 08:56:46;;;;;;;7.70;0.82;;;;;;;9.03;92.94;99786.91;5027884;28;20372;-77
2022/02/18 08:59:12;;;;;;;1.90;0.80;;;;;;;9.06;93.21;99785.75;5011599;28;20033;-77
2022/02/18 09:01:37;;;;;;;4.32;0.70;;;;;;;9.28;92.40;99779.78;5042161;28;20120;-77
2022/02/18 09:04:03;;;;;;;2.50;0.77;;;;;;;9.25;92.22;99782.75;5027665;28;20147;-77
2022/02/18 09:06:29;;;;;;;4.88;1.00;;;;;;;9.34;92.38;99780.88;5007048;28;20522;-76
2022/02/18 09:08:55;;;;;;;5.00;1.30;;;;;;;9.41;92.38;99781.81;5046496;28;20029;-77
2022/02/18 09:11:21;;;;;;;6.00;0.80;;;;;;;9.39;92.50;99762.28;5025370;28;20561;-77
2022/02/18 09:13:47;;;;;;;1.50;0.73;;;;;;;9.42;91.93;99760.16;5027305;28;20588;-77
2022/02/18 09:16:13;;;;;;;4.03;0.52;;;;;;;9.47;92.44;99744.09;5026592;28;20029;-77
2022/02/18 09:18:48;;;;;;;1.10;0.60;;;;;;;9.59;92.00;99737.53;5009030;28;20052;-77
2022/02/18 09:21:14;;;;;;;1.33;0.63;;;;;;;9.62;91.61;99733.78;5034711;28;20036;-77
2022/02/18 09:23:39;;;;;;;2.10;0.52;;;;;;;9.69;91.55;99734.69;5029490;28;20423;-77
2022/02/18 09:26:05;;;;;;;3.40;0.63;;;;;;;9.74;91.43;99722.81;5010044;28;20041;-77
2022/02/18 09:28:30;;;;;;;6.65;1.98;;;;;;;9.84;90.78;99719.19;5029129;28;20044;-77
2022/02/18 09:30:56;;;;;;;1.85;1.10;;;;;;;9.79;91.10;99709.34;5026230;28;20047;-77
2022/02/18 09:33:22;;;;;;;2.42;0.93;;;;;;;9.99;90.31;99724.38;5047173;28;20632;-77
2022/02/18 09:35:48;;;;;;;2.97;1.10;;;;;;;9.85;90.63;99708.66;5030971;28;20033;-77
2022/02/18 09:38:14;;;;;;;1.65;0.80;;;;;;;10.02;90.05;99688.56;5042732;28;20569;-77
2022/02/18 09:40:40;;;;;;;1.70;1.00;;;;;;;10.06;89.98;99692.41;5027390;28;20087;-77
2022/02/18 09:43:06;;;;;;;3.72;0.70;;;;;;;10.18;89.66;99674.59;5033068;28;20063;-76
2022/02/18 09:45:32;;;;;;;3.78;0.77;;;;;;;10.14;89.45;99668.19;5044291;28;20033;-78
2022/02/18 09:47:59;;;;;;;5.95;1.17;;;;;;;10.20;88.95;99664.06;5028433;28;20025;-76
2022/02/18 09:50:26;;;;;;;4.00;1.10;;;;;;;10.09;90.10;99653.16;5012493;28;20139;-77
2022/02/18 09:52:51;;;;;;;1.48;0.77;;;;;;;10.21;90.09;99657.88;5029128;28;20040;-77
2022/02/18 09:55:17;;;;;;;2.08;1.20;;;;;;;10.18;89.44;99653.88;5011906;28;20043;-76
2022/02/18 09:57:44;;;;;;;2.08;1.15;;;;;;;10.37;88.79;99651.75;5051857;28;20119;-77
2022/02/18 10:00:11;;;;;;;1.65;1.10;;;;;;;10.29;88.88;99640.47;5030147;28;20040;-76
2022/02/18 10:02:42;;;;;;;6.75;1.45;;;;;;;10.37;88.88;99637.00;5033149;28;20050;-77
2022/02/18 10:05:08;;;;;;;3.65;1.15;;;;;;;10.33;88.33;99648.72;5035508;28;20495;-76
2022/02/18 10:07:34;;;;;;;6.32;2.30;;;;;;;10.52;87.85;99632.56;5026195;28;20079;-76
2022/02/18 10:09:59;;;;;;;2.72;1.25;;;;;;;10.51;87.61;99643.13;5029700;28;20040;-77
2022/02/18 10:12:42;;;;;;;1.15;0.77;;;;;;;10.48;87.92;99635.72;5028295;28;20032;-77
2022/02/18 10:15:11;;;;;;;0.80;0.60;;;;;;;10.61;87.51;99640.25;5008067;28;20127;-78
2022/02/18 10:17:42;;;;;;;2.13;0.70;;;;;;;10.61;87.26;99615.13;5012377;28;20036;-77
2022/02/18 10:20:17;;;;;;;1.83;0.60;;;;;;;10.65;87.16;99611.16;5035882;28;20085;-77
2022/02/18 10:23:12;;;;;;;5.07;0.82;;;;;;;10.83;86.56;99602.13;5032225;28;20040;-79
2022/02/18 10:25:40;;;;;;;0.82;0.50;;;;;;;10.84;86.59;99595.97;5019240;28;20052;-78
2022/02/18 10:28:09;;;;;;;1.25;0.50;;;;;;;10.79;86.80;99593.91;5045518;28;20032;-77
2022/02/18 10:30:34;;;;;;;1.17;0.50;;;;;;;10.83;86.35;99587.41;5039253;28;20037;-77
2022/02/18 10:33:14;;;;;;;2.17;0.50;;;;;;;10.94;85.73;99585.28;5026665;28;20064;-77
2022/02/18 10:35:40;;;;;;;2.40;0.30;;;;;;;10.90;85.92;99572.66;5038784;28;20041;-78
2022/02/18 10:38:07;;;;;;;1.20;0.47;;;;;;;10.94;85.80;99574.91;5031785;28;20036;-78
2022/02/18 10:40:44;;;;;;;2.97;0.50;;;;;;;11.03;85.13;99587.53;5007415;28;20063;-78
2022/02/18 10:43:11;;;;;;;2.17;0.47;;;;;;;10.92;85.42;99575.09;5008177;28;20495;-78
2022/02/18 10:46:07;;;;;;;2.00;0.40;;;;;;;11.02;85.41;99556.59;5004320;28;20041;-77
2022/02/18 10:48:44;;;;;;;1.45;0.38;;;;;;;11.10;84.90;99539.09;5026679;28;20039;-77
2022/02/18 10:51:14;;;;;;;0.47;0.35;;;;;;;11.21;84.39;99540.38;5008154;28;20043;-77
2022/02/18 10:53:47;;;;;;;1.58;0.20;;;;;;;11.20;84.18;99525.78;5025863;28;20049;-76
2022/02/18 10:56:14;;;;;;;3.15;0.57;;;;;;;11.22;84.67;99521.19;5023403;28;20032;-77
2022/02/18 10:58:57;;;;;;;0.80;0.50;;;;;;;11.31;84.51;99519.28;5025662;28;20040;-76
2022/02/18 11:01:27;;;;;;;1.67;0.50;;;;;;;11.27;84.83;99511.06;5008532;28;20094;-77
2022/02/18 11:03:59;;;;;;;0.98;0.30;;;;;;;11.28;84.28;99506.66;5017737;28;20059;-77
2022/02/18 11:06:28;;;;;;;0.63;0.40;;;;;;;11.33;84.45;99491.31;5025793;28;20047;-78
2022/02/18 11:08:58;;;;;;;0.80;0.25;;;;;;;11.35;83.89;99491.94;5043447;28;20048;-78
2022/02/18 11:11:31;;;;;;;1.15;0.43;;;;;;;11.35;84.18;99481.56;5029820;28;20057;-77
2022/02/18 11:13:59;;;;;;;1.50;0.28;;;;;;;11.41;83.94;99480.78;5025226;28;20037;-76
2022/02/18 11:16:26;;;;;;;0.80;0.40;;;;;;;11.37;84.98;99473.59;5010471;28;20705;-77
2022/02/18 11:18:52;;;;;;;1.85;0.40;;;;;;;11.45;84.62;99455.22;5024199;28;20083;-78
2022/02/18 11:21:17;;;;;;;1.55;0.35;;;;;;;11.47;84.45;99446.28;5012723;28;20063;-77
2022/02/18 11:23:43;;;;;;;4.25;0.40;;;;;;;11.55;84.08;99436.72;5006629;28;20024;-78
2022/02/18 11:26:20;;;;;;;3.72;0.30;;;;;;;11.46;84.25;99436.88;5025097;28;20037;-76
2022/02/18 11:28:47;;;;;;;0.50;0.50;;;;;;;11.49;83.99;99420.94;5041273;28;20036;-80